Time;durP1;ratioP1;P1;durP2;ratioP2;P2;SDS_P1;SDS_P2;PMS_P1;PMS_P2;Temp;Humidity;BMP_temperature;BMP_pressure;BME280_temperature;BME280_humidity;BME280_pressure;Samples;Min_cycle;Max_cycle;Signal;HPM_P1;HPM_P2
2023/10/06 00:00:52;;;;;;;0.10;0.10;;;;;;;;;;5109911;28;19969;-52
2023/10/06 00:03:20;;;;;;;0.15;0.15;;;;;;;;;;5110945;28;20388;-52
2023/10/06 00:05:49;;;;;;;;;;;;;;;;;;5110998;28;20070;-52
2023/10/06 00:08:20;;;;;;;0.20;0.20;;;;;;;;;;5117075;28;20039;-51
2023/10/06 00:10:50;;;;;;;0.30;0.22;;;;;;;;;;5131300;28;20047;-51
2023/10/06 00:13:23;;;;;;;0.10;0.10;;;;;;;;;;5129768;28;20416;-51
2023/10/06 00:15:51;;;;;;;0.10;0.10;;;;;;;;;;5130684;28;20054;-51
2023/10/06 00:18:19;;;;;;;0.10;0.10;;;;;;;;;;5130744;28;20047;-51
2023/10/06 00:20:48;;;;;;;0.10;0.10;;;;;;;;;;5130924;28;20047;-52
2023/10/06 00:23:15;;;;;;;0.10;0.10;;;;;;;;;;5130813;28;20479;-52
2023/10/06 00:25:43;;;;;;;0.10;0.10;;;;;;;;;;5130752;28;20055;-51
2023/10/06 00:28:42;;;;;;;0.10;0.10;;;;;;;;;;5130666;28;20054;-51
2023/10/06 00:30:57;;;;;;;0.10;0.10;;;;;;;;;;5115445;28;20047;-52
2023/10/06 00:33:26;;;;;;;0.15;0.15;;;;;;;;;;5129724;28;20419;-51
2023/10/06 00:35:52;;;;;;;0.17;0.17;;;;;;;;;;5119946;28;20079;-51
2023/10/06 00:38:18;;;;;;;0.10;0.10;;;;;;;;;;5116331;28;20479;-52
2023/10/06 00:40:51;;;;;;;0.10;0.10;;;;;;;;;;5130293;28;20062;-52
2023/10/06 00:43:36;;;;;;;0.13;0.13;;;;;;;;;;5131082;27;20043;-51
2023/10/06 00:46:06;;;;;;;0.10;0.10;;;;;;;;;;5116426;28;20138;-52
2023/10/06 00:48:32;;;;;;;0.20;0.20;;;;;;;;;;5121222;28;20051;-51
2023/10/06 00:50:59;;;;;;;0.17;0.17;;;;;;;;;;5133570;28;20053;-51
2023/10/06 00:53:31;;;;;;;0.10;0.10;;;;;;;;;;5133292;28;20047;-50
2023/10/06 00:56:02;;;;;;;0.10;0.10;;;;;;;;;;5132570;28;20051;-51
2023/10/06 00:58:33;;;;;;;0.10;0.10;;;;;;;;;;5110232;28;20043;-51
2023/10/06 01:01:00;;;;;;;0.10;0.10;;;;;;;;;;5112467;28;20464;-50
2023/10/06 01:03:25;;;;;;;0.10;0.10;;;;;;;;;;5112832;28;20039;-52
2023/10/06 01:05:56;;;;;;;0.20;0.20;;;;;;;;;;5112382;28;20200;-51
2023/10/06 01:08:22;;;;;;;0.13;0.13;;;;;;;;;;5120077;28;20440;-51
2023/10/06 01:10:51;;;;;;;0.20;0.20;;;;;;;;;;5133101;28;20364;-51
2023/10/06 01:13:18;;;;;;;0.20;0.20;;;;;;;;;;5132462;28;20051;-51
2023/10/06 01:15:49;;;;;;;0.15;0.15;;;;;;;;;;5132975;28;20054;-51
2023/10/06 01:18:20;;;;;;;0.20;0.20;;;;;;;;;;5133086;28;20094;-51
2023/10/06 01:20:46;;;;;;;0.10;0.10;;;;;;;;;;5133321;28;20047;-50
2023/10/06 01:23:27;;;;;;;0.20;0.20;;;;;;;;;;5115011;28;20047;-51
2023/10/06 01:25:54;;;;;;;0.10;0.10;;;;;;;;;;5133591;28;20050;-52
2023/10/06 01:28:23;;;;;;;0.10;0.10;;;;;;;;;;5133195;28;20130;-52
2023/10/06 01:30:50;;;;;;;0.10;0.10;;;;;;;;;;5132870;28;20086;-51
2023/10/06 01:33:16;;;;;;;0.20;0.20;;;;;;;;;;5132834;28;20047;-52
2023/10/06 01:35:42;;;;;;;0.10;0.10;;;;;;;;;;5133119;28;20066;-51
2023/10/06 01:38:18;;;;;;;0.10;0.10;;;;;;;;;;5122723;28;20055;-51
2023/10/06 01:40:45;;;;;;;0.10;0.10;;;;;;;;;;5133531;28;20079;-52
2023/10/06 01:43:12;;;;;;;0.10;0.10;;;;;;;;;;5132949;27;20047;-51
2023/10/06 01:45:43;;;;;;;0.10;0.10;;;;;;;;;;5133296;28;20047;-51
2023/10/06 01:50:50;;;;;;;0.10;0.10;;;;;;;;;;5191115;27;20141;-52
2023/10/06 01:53:19;;;;;;;0.20;0.20;;;;;;;;;;5150834;27;20046;-51
2023/10/06 01:55:49;;;;;;;0.20;0.20;;;;;;;;;;5162322;27;20050;-52
2023/10/06 01:58:15;;;;;;;0.10;0.10;;;;;;;;;;5160471;27;20051;-52
2023/10/06 02:00:40;;;;;;;0.10;0.10;;;;;;;;;;5187766;27;20394;-52
2023/10/06 02:03:10;;;;;;;0.17;0.17;;;;;;;;;;5189544;27;20046;-51
2023/10/06 02:05:38;;;;;;;0.10;0.10;;;;;;;;;;5190236;27;20060;-50
2023/10/06 02:08:05;;;;;;;0.20;0.20;;;;;;;;;;5179089;27;20433;-52
2023/10/06 02:10:32;;;;;;;0.20;0.20;;;;;;;;;;5148388;27;20047;-51
2023/10/06 02:12:58;;;;;;;0.10;0.10;;;;;;;;;;5147845;27;20484;-50
2023/10/06 02:15:24;;;;;;;0.10;0.10;;;;;;;;;;5148083;27;20103;-52
2023/10/06 02:17:50;;;;;;;0.10;0.10;;;;;;;;;;5147654;27;20839;-51
2023/10/06 02:22:58;;;;;;;0.10;0.10;;;;;;;;;;5191337;27;20573;-51
2023/10/06 02:25:25;;;;;;;0.10;0.10;;;;;;;;;;5169895;27;20050;-51
2023/10/06 02:27:51;;;;;;;0.20;0.20;;;;;;;;;;5169378;27;20050;-51
2023/10/06 02:30:19;;;;;;;0.10;0.10;;;;;;;;;;5169895;27;20073;-52
2023/10/06 02:32:45;;;;;;;0.10;0.10;;;;;;;;;;5169122;27;20046;-51
2023/10/06 02:35:12;;;;;;;0.10;0.10;;;;;;;;;;5168820;27;20065;-51
2023/10/06 02:37:38;;;;;;;0.10;0.10;;;;;;;;;;5168905;27;20075;-50
2023/10/06 02:40:11;;;;;;;0.17;0.17;;;;;;;;;;5168446;27;20051;-52
2023/10/06 02:42:43;;;;;;;0.10;0.10;;;;;;;;;;5156378;27;20103;-52
2023/10/06 02:45:09;;;;;;;0.20;0.20;;;;;;;;;;5148363;27;20073;-52
2023/10/06 02:47:35;;;;;;;0.10;0.10;;;;;;;;;;5146715;27;20047;-52
2023/10/06 02:50:07;;;;;;;0.10;0.10;;;;;;;;;;5146754;27;20099;-51
2023/10/06 02:52:37;;;;;;;0.10;0.10;;;;;;;;;;5147588;27;20065;-51
2023/10/06 02:57:35;;;;;;;0.10;0.10;;;;;;;;;;5150095;27;20070;-50
2023/10/06 03:00:28;;;;;;;0.10;0.10;;;;;;;;;;5127057;28;20044;-50
2023/10/06 03:02:55;;;;;;;0.10;0.10;;;;;;;;;;5111835;28;20331;-51
2023/10/06 03:05:25;;;;;;;0.10;0.10;;;;;;;;;;5126841;28;20142;-51
2023/10/06 03:07:51;;;;;;;0.10;0.10;;;;;;;;;;5126629;27;20063;-51
2023/10/06 03:10:18;;;;;;;0.25;0.25;;;;;;;;;;5127371;28;20073;-50
2023/10/06 03:12:43;;;;;;;0.10;0.10;;;;;;;;;;5126121;28;20066;-51
2023/10/06 03:15:28;;;;;;;0.10;0.10;;;;;;;;;;5126739;28;20471;-50
2023/10/06 03:17:55;;;;;;;0.10;0.10;;;;;;;;;;5125969;27;20479;-52
2023/10/06 03:20:25;;;;;;;0.20;0.20;;;;;;;;;;5126789;27;20064;-52
2023/10/06 03:22:51;;;;;;;0.10;0.10;;;;;;;;;;5126774;28;20051;-51
2023/10/06 03:25:17;;;;;;;0.10;0.10;;;;;;;;;;5126686;28;20050;-52
2023/10/06 03:27:45;;;;;;;0.20;0.20;;;;;;;;;;5126270;27;20503;-51
2023/10/06 03:30:18;;;;;;;0.10;0.10;;;;;;;;;;5126494;28;20389;-51
2023/10/06 03:32:48;;;;;;;0.10;0.10;;;;;;;;;;5121795;28;20048;-51
2023/10/06 03:35:22;;;;;;;0.10;0.10;;;;;;;;;;5112321;28;20054;-52
2023/10/06 03:38:08;;;;;;;0.20;0.20;;;;;;;;;;5112080;28;20055;-52
2023/10/06 03:41:11;;;;;;;0.10;0.10;;;;;;;;;;5104115;28;20453;-51
2023/10/06 03:46:04;;;;;;;0.20;0.20;;;;;;;;;;5097986;28;20043;-51
2023/10/06 03:48:31;;;;;;;0.10;0.10;;;;;;;;;;5121198;28;20047;-51
2023/10/06 03:50:57;;;;;;;0.13;0.13;;;;;;;;;;5132846;28;20043;-51
2023/10/06 03:53:24;;;;;;;0.10;0.10;;;;;;;;;;5131076;28;20090;-49
2023/10/06 03:55:50;;;;;;;0.10;0.10;;;;;;;;;;5124702;27;20099;-51
2023/10/06 03:58:16;;;;;;;0.10;0.10;;;;;;;;;;5132704;28;20047;-52
2023/10/06 04:00:47;;;;;;;0.17;0.17;;;;;;;;;;5133159;28;20047;-52
2023/10/06 04:03:13;;;;;;;0.10;0.10;;;;;;;;;;5133148;28;20060;-52
2023/10/06 04:05:40;;;;;;;0.20;0.20;;;;;;;;;;5132940;28;20066;-52
2023/10/06 04:08:08;;;;;;;0.10;0.10;;;;;;;;;;5132968;28;20047;-51
2023/10/06 04:10:36;;;;;;;0.10;0.10;;;;;;;;;;5133096;28;20404;-52
2023/10/06 04:13:03;;;;;;;0.10;0.10;;;;;;;;;;5131800;28;20061;-51
2023/10/06 04:15:28;;;;;;;0.20;0.20;;;;;;;;;;5133025;28;20051;-52
2023/10/06 04:17:54;;;;;;;0.10;0.10;;;;;;;;;;5132118;28;20043;-52
2023/10/06 04:20:20;;;;;;;0.10;0.10;;;;;;;;;;5132793;28;20047;-50
2023/10/06 04:22:45;;;;;;;0.20;0.20;;;;;;;;;;5132722;27;20043;-51
2023/10/06 04:25:11;;;;;;;0.10;0.10;;;;;;;;;;5132527;28;20058;-52
2023/10/06 04:27:37;;;;;;;0.10;0.10;;;;;;;;;;5132297;28;20051;-51
2023/10/06 04:30:04;;;;;;;0.10;0.10;;;;;;;;;;5132788;28;20082;-52
2023/10/06 04:32:42;;;;;;;0.10;0.10;;;;;;;;;;5132298;27;20043;-52
2023/10/06 04:35:19;;;;;;;0.10;0.10;;;;;;;;;;5132554;28;20075;-50
2023/10/06 04:37:46;;;;;;;0.10;0.10;;;;;;;;;;5132172;27;20047;-52
2023/10/06 04:40:16;;;;;;;0.10;0.10;;;;;;;;;;5132858;28;20047;-52
2023/10/06 04:42:42;;;;;;;0.10;0.10;;;;;;;;;;5131411;28;20414;-51
2023/10/06 04:45:12;;;;;;;0.20;0.20;;;;;;;;;;5130512;27;20055;-51
2023/10/06 04:47:40;;;;;;;0.10;0.10;;;;;;;;;;5130020;27;20059;-51
2023/10/06 04:50:09;;;;;;;0.20;0.20;;;;;;;;;;5111682;28;20043;-50
2023/10/06 04:52:36;;;;;;;0.10;0.10;;;;;;;;;;5121668;28;20042;-51
2023/10/06 04:55:03;;;;;;;0.10;0.10;;;;;;;;;;5139777;27;20503;-51
2023/10/06 04:57:28;;;;;;;0.10;0.10;;;;;;;;;;5152994;27;20057;-50
2023/10/06 04:59:54;;;;;;;0.10;0.10;;;;;;;;;;5132313;28;20141;-52
2023/10/06 05:02:22;;;;;;;0.20;0.20;;;;;;;;;;5132410;28;20214;-52
2023/10/06 05:04:47;;;;;;;0.10;0.10;;;;;;;;;;5132284;28;20088;-52
2023/10/06 05:07:13;;;;;;;0.10;0.10;;;;;;;;;;5132236;28;20051;-50
2023/10/06 05:09:40;;;;;;;0.10;0.10;;;;;;;;;;5131920;28;20047;-52
2023/10/06 05:12:05;;;;;;;0.10;0.10;;;;;;;;;;5131272;27;20047;-52
2023/10/06 05:14:34;;;;;;;0.10;0.10;;;;;;;;;;5131832;28;20058;-51
2023/10/06 05:16:59;;;;;;;0.10;0.10;;;;;;;;;;5131956;28;20463;-51
2023/10/06 05:19:26;;;;;;;0.17;0.17;;;;;;;;;;5130959;27;20051;-52
2023/10/06 05:21:53;;;;;;;0.45;0.45;;;;;;;;;;5132122;28;20051;-52
2023/10/06 05:24:18;;;;;;;0.10;0.10;;;;;;;;;;5132232;28;20070;-51
2023/10/06 05:26:44;;;;;;;0.20;0.20;;;;;;;;;;5131497;28;20051;-51
2023/10/06 05:29:14;;;;;;;0.10;0.10;;;;;;;;;;5131113;28;20046;-52
2023/10/06 05:31:40;;;;;;;0.10;0.10;;;;;;;;;;5130908;28;20526;-51
2023/10/06 05:34:07;;;;;;;0.10;0.10;;;;;;;;;;5130922;28;20047;-49
2023/10/06 05:36:33;;;;;;;0.10;0.10;;;;;;;;;;5131242;28;20376;-51
2023/10/06 05:38:59;;;;;;;0.10;0.10;;;;;;;;;;5131058;28;20544;-51
2023/10/06 05:41:33;;;;;;;0.10;0.10;;;;;;;;;;5131015;28;20070;-51
2023/10/06 05:43:58;;;;;;;0.10;0.10;;;;;;;;;;5130452;28;20047;-50
2023/10/06 05:46:25;;;;;;;0.10;0.10;;;;;;;;;;5130960;28;20076;-51
2023/10/06 05:48:51;;;;;;;0.10;0.10;;;;;;;;;;5129938;28;20497;-51
2023/10/06 05:51:21;;;;;;;0.13;0.13;;;;;;;;;;5129885;28;20100;-51
2023/10/06 05:53:48;;;;;;;0.10;0.10;;;;;;;;;;5129374;28;20039;-50
2023/10/06 05:56:15;;;;;;;0.10;0.10;;;;;;;;;;5131210;27;20054;-52
2023/10/06 05:58:43;;;;;;;0.10;0.10;;;;;;;;;;5120207;27;20051;-52
2023/10/06 06:01:20;;;;;;;0.10;0.10;;;;;;;;;;5110345;28;20392;-51
2023/10/06 06:03:46;;;;;;;0.25;0.25;;;;;;;;;;5110192;28;20052;-52
2023/10/06 06:06:15;;;;;;;0.20;0.20;;;;;;;;;;5109976;28;20081;-51
2023/10/06 06:08:43;;;;;;;0.10;0.10;;;;;;;;;;5110150;28;20132;-52
2023/10/06 06:11:08;;;;;;;;;;;;;;;;;;5110846;28;20081;-51
2023/10/06 06:13:36;;;;;;;0.10;0.10;;;;;;;;;;5109169;28;19966;-51
2023/10/06 06:16:02;;;;;;;0.10;0.10;;;;;;;;;;5110467;28;20044;-51
2023/10/06 06:18:28;;;;;;;0.40;0.40;;;;;;;;;;5109872;28;20078;-51
2023/10/06 06:20:54;;;;;;;0.10;0.10;;;;;;;;;;5092175;28;20122;-51
2023/10/06 06:23:20;;;;;;;0.10;0.10;;;;;;;;;;5110307;28;20459;-51
2023/10/06 06:25:46;;;;;;;0.10;0.10;;;;;;;;;;5110545;28;20080;-51
2023/10/06 06:28:12;;;;;;;0.10;0.10;;;;;;;;;;5110309;28;20059;-52
2023/10/06 06:30:39;;;;;;;0.10;0.10;;;;;;;;;;5110444;28;20054;-51
2023/10/06 06:33:08;;;;;;;0.10;0.10;;;;;;;;;;5109123;28;20440;-51
2023/10/06 06:35:35;;;;;;;0.10;0.10;;;;;;;;;;5110235;28;20047;-51
2023/10/06 06:38:01;;;;;;;0.10;0.10;;;;;;;;;;5109530;28;20131;-51
2023/10/06 06:40:28;;;;;;;0.10;0.10;;;;;;;;;;5109881;28;20368;-51
2023/10/06 06:42:55;;;;;;;0.10;0.10;;;;;;;;;;5109573;28;20044;-51
2023/10/06 06:45:21;;;;;;;0.10;0.10;;;;;;;;;;5115047;28;20078;-50
2023/10/06 06:47:47;;;;;;;0.10;0.10;;;;;;;;;;5129779;28;20321;-51
2023/10/06 06:50:15;;;;;;;0.10;0.10;;;;;;;;;;5130432;28;20047;-51
2023/10/06 06:52:40;;;;;;;;;;;;;;;;;;5129946;27;20043;-51
2023/10/06 06:55:12;;;;;;;0.10;0.10;;;;;;;;;;5135626;27;20259;-51
2023/10/06 06:57:45;;;;;;;0.10;0.10;;;;;;;;;;5129567;28;20054;-51
2023/10/06 07:00:16;;;;;;;0.20;0.20;;;;;;;;;;5129955;27;20100;-51
2023/10/06 07:02:43;;;;;;;0.10;0.10;;;;;;;;;;5130539;28;20512;-52
2023/10/06 07:05:10;;;;;;;0.10;0.10;;;;;;;;;;5129914;28;20407;-51
2023/10/06 07:07:37;;;;;;;0.10;0.10;;;;;;;;;;5130401;27;20051;-52
2023/10/06 07:10:06;;;;;;;0.10;0.10;;;;;;;;;;5134229;27;20047;-52
2023/10/06 07:12:32;;;;;;;0.10;0.10;;;;;;;;;;5133214;28;20050;-51
2023/10/06 07:14:57;;;;;;;0.10;0.10;;;;;;;;;;5134252;27;20082;-52
2023/10/06 07:17:24;;;;;;;0.10;0.10;;;;;;;;;;5134069;28;20585;-52
2023/10/06 07:19:50;;;;;;;0.10;0.10;;;;;;;;;;5134175;28;20058;-51
2023/10/06 07:22:16;;;;;;;0.10;0.10;;;;;;;;;;5134392;28;20055;-51
2023/10/06 07:24:41;;;;;;;0.10;0.10;;;;;;;;;;5134078;28;20039;-51
2023/10/06 07:27:08;;;;;;;0.10;0.10;;;;;;;;;;5133910;28;20122;-51
2023/10/06 07:29:33;;;;;;;0.10;0.10;;;;;;;;;;5133525;28;20039;-51
2023/10/06 07:32:00;;;;;;;0.20;0.20;;;;;;;;;;5133195;27;20126;-52
2023/10/06 07:34:27;;;;;;;0.10;0.10;;;;;;;;;;5132897;28;20145;-51
2023/10/06 07:36:53;;;;;;;0.10;0.10;;;;;;;;;;5133495;28;20530;-51
2023/10/06 07:39:20;;;;;;;0.20;0.20;;;;;;;;;;5133122;28;20359;-51
2023/10/06 07:41:46;;;;;;;0.10;0.10;;;;;;;;;;5133186;28;20412;-51
2023/10/06 07:44:12;;;;;;;0.10;0.10;;;;;;;;;;5133174;28;20043;-51
2023/10/06 07:46:38;;;;;;;0.13;0.13;;;;;;;;;;5133457;28;20170;-52
2023/10/06 07:49:04;;;;;;;0.10;0.10;;;;;;;;;;5132528;28;20600;-51
2023/10/06 07:51:33;;;;;;;0.10;0.10;;;;;;;;;;5133356;28;20069;-51
2023/10/06 07:53:59;;;;;;;0.10;0.10;;;;;;;;;;5140913;27;20046;-49
2023/10/06 07:56:26;;;;;;;0.10;0.10;;;;;;;;;;5153966;27;20487;-51
2023/10/06 07:58:52;;;;;;;0.10;0.10;;;;;;;;;;5131792;27;20414;-51
2023/10/06 08:01:18;;;;;;;0.10;0.10;;;;;;;;;;5133017;28;20047;-50
2023/10/06 08:03:45;;;;;;;0.10;0.10;;;;;;;;;;5132706;28;20043;-51
2023/10/06 08:06:11;;;;;;;0.10;0.10;;;;;;;;;;5133025;28;20051;-51
2023/10/06 08:08:37;;;;;;;0.10;0.10;;;;;;;;;;5132680;28;20095;-51
2023/10/06 08:11:05;;;;;;;0.10;0.10;;;;;;;;;;5132843;28;20086;-51
2023/10/06 08:13:31;;;;;;;0.10;0.10;;;;;;;;;;5131620;28;20079;-51
2023/10/06 08:15:57;;;;;;;0.10;0.10;;;;;;;;;;5132514;27;20055;-52
2023/10/06 08:18:22;;;;;;;0.10;0.10;;;;;;;;;;5132114;27;20043;-51
2023/10/06 08:20:48;;;;;;;0.10;0.10;;;;;;;;;;5132523;27;20479;-51
2023/10/06 08:23:15;;;;;;;0.10;0.10;;;;;;;;;;5132556;28;20180;-51
2023/10/06 08:25:41;;;;;;;0.10;0.10;;;;;;;;;;5132406;28;20039;-51
2023/10/06 08:28:26;;;;;;;0.10;0.10;;;;;;;;;;5131915;28;20058;-51
2023/10/06 08:30:52;;;;;;;0.10;0.10;;;;;;;;;;5132513;28;20044;-52
2023/10/06 08:33:17;;;;;;;0.10;0.10;;;;;;;;;;5131579;28;20104;-52
2023/10/06 08:35:44;;;;;;;0.10;0.10;;;;;;;;;;5131826;28;20059;-52
2023/10/06 08:38:09;;;;;;;0.10;0.10;;;;;;;;;;5131945;28;20170;-51
2023/10/06 08:40:41;;;;;;;0.10;0.10;;;;;;;;;;5132081;28;20487;-50
2023/10/06 08:43:07;;;;;;;0.10;0.10;;;;;;;;;;5131416;28;20051;-51
2023/10/06 08:45:37;;;;;;;0.10;0.10;;;;;;;;;;5132106;28;20415;-51
2023/10/06 08:48:09;;;;;;;0.10;0.10;;;;;;;;;;5131225;27;20659;-51
2023/10/06 08:50:35;;;;;;;0.10;0.10;;;;;;;;;;5131378;28;20116;-51
2023/10/06 08:53:05;;;;;;;0.10;0.10;;;;;;;;;;5126945;27;20051;-50
2023/10/06 08:55:31;;;;;;;0.10;0.10;;;;;;;;;;5132111;28;20051;-51
2023/10/06 08:57:58;;;;;;;0.10;0.10;;;;;;;;;;5131824;28;20058;-52
2023/10/06 09:00:31;;;;;;;0.10;0.10;;;;;;;;;;5131013;28;20063;-49
2023/10/06 09:03:03;;;;;;;0.10;0.10;;;;;;;;;;5111768;28;20116;-50
2023/10/06 09:05:29;;;;;;;0.20;0.20;;;;;;;;;;5111826;28;20047;-51
2023/10/06 09:07:57;;;;;;;0.10;0.10;;;;;;;;;;5096576;28;20053;-51
2023/10/06 09:10:22;;;;;;;0.10;0.10;;;;;;;;;;5132369;28;20066;-51
2023/10/06 09:12:57;;;;;;;0.10;0.10;;;;;;;;;;5130978;28;20412;-51
2023/10/06 09:15:23;;;;;;;0.10;0.10;;;;;;;;;;5131328;28;20364;-51
2023/10/06 09:17:48;;;;;;;0.10;0.10;;;;;;;;;;5131440;28;20054;-51
2023/10/06 09:20:25;;;;;;;0.10;0.10;;;;;;;;;;5132656;28;20043;-51
2023/10/06 09:22:56;;;;;;;0.10;0.10;;;;;;;;;;5132417;28;20043;-51
2023/10/06 09:25:21;;;;;;;0.10;0.10;;;;;;;;;;5132128;27;20104;-51
2023/10/06 09:27:48;;;;;;;0.10;0.10;;;;;;;;;;5132173;28;20194;-50
2023/10/06 09:30:20;;;;;;;0.10;0.10;;;;;;;;;;5132211;27;20058;-52
2023/10/06 09:32:46;;;;;;;0.10;0.10;;;;;;;;;;5131835;28;20047;-51
2023/10/06 09:35:20;;;;;;;0.15;0.15;;;;;;;;;;5131087;28;20050;-51
2023/10/06 09:37:46;;;;;;;0.10;0.10;;;;;;;;;;5131119;28;20039;-51
2023/10/06 09:40:20;;;;;;;0.10;0.10;;;;;;;;;;5131260;27;20047;-50
2023/10/06 09:42:47;;;;;;;0.20;0.20;;;;;;;;;;5130701;28;20047;-52
2023/10/06 09:45:16;;;;;;;0.10;0.10;;;;;;;;;;5131410;28;20159;-51
2023/10/06 09:47:46;;;;;;;0.20;0.20;;;;;;;;;;5130887;28;20519;-51
2023/10/06 09:50:14;;;;;;;0.10;0.10;;;;;;;;;;5130893;28;20088;-52
2023/10/06 09:52:42;;;;;;;0.10;0.10;;;;;;;;;;5130084;27;20043;-51
2023/10/06 09:55:08;;;;;;;0.10;0.10;;;;;;;;;;5130985;28;20055;-51
2023/10/06 09:57:34;;;;;;;0.10;0.10;;;;;;;;;;5131166;28;20043;-52
2023/10/06 10:00:00;;;;;;;0.20;0.20;;;;;;;;;;5130689;28;20499;-53
2023/10/06 10:02:29;;;;;;;0.10;0.10;;;;;;;;;;5130221;28;20049;-51
2023/10/06 10:04:59;;;;;;;0.10;0.10;;;;;;;;;;5130356;28;20078;-52
2023/10/06 10:07:27;;;;;;;0.10;0.10;;;;;;;;;;5129108;28;20420;-51
2023/10/06 10:09:52;;;;;;;0.10;0.10;;;;;;;;;;5130653;28;20059;-50
2023/10/06 10:12:28;;;;;;;0.10;0.10;;;;;;;;;;5130050;28;20054;-52
2023/10/06 10:14:59;;;;;;;0.10;0.10;;;;;;;;;;5129937;28;20456;-49
2023/10/06 10:17:45;;;;;;;0.10;0.10;;;;;;;;;;5112238;28;20050;-51
2023/10/06 10:20:12;;;;;;;0.10;0.10;;;;;;;;;;5095066;28;20468;-51
2023/10/06 10:22:40;;;;;;;0.10;0.10;;;;;;;;;;5110050;28;20047;-50
2023/10/06 10:25:08;;;;;;;0.10;0.10;;;;;;;;;;5110469;28;20101;-52
2023/10/06 10:27:37;;;;;;;0.13;0.13;;;;;;;;;;5111392;28;20047;-51
2023/10/06 10:30:07;;;;;;;0.10;0.10;;;;;;;;;;5131171;27;20047;-51
2023/10/06 10:32:33;;;;;;;0.10;0.10;;;;;;;;;;5130627;28;20051;-51
2023/10/06 10:35:08;;;;;;;0.10;0.10;;;;;;;;;;5130445;28;20544;-51
2023/10/06 10:37:50;;;;;;;0.10;0.10;;;;;;;;;;5130604;28;20058;-51
2023/10/06 10:40:19;;;;;;;0.20;0.20;;;;;;;;;;5131000;28;20058;-52
2023/10/06 10:42:45;;;;;;;0.43;0.28;;;;;;;;;;5130802;27;20468;-51
2023/10/06 10:45:30;;;;;;;0.10;0.10;;;;;;;;;;5133863;28;20051;-51
2023/10/06 10:47:58;;;;;;;0.10;0.10;;;;;;;;;;5118171;28;20103;-52
2023/10/06 10:50:44;;;;;;;0.10;0.10;;;;;;;;;;5133688;28;20523;-49
2023/10/06 10:53:11;;;;;;;0.10;0.10;;;;;;;;;;5129310;28;20070;-52
2023/10/06 10:55:37;;;;;;;0.10;0.10;;;;;;;;;;5133601;27;20407;-51
2023/10/06 10:58:03;;;;;;;0.15;0.15;;;;;;;;;;5132266;27;20507;-51
2023/10/06 11:00:29;;;;;;;0.10;0.10;;;;;;;;;;5131866;28;20100;-51
2023/10/06 11:05:31;;;;;;;0.10;0.10;;;;;;;;;;5190343;27;20573;-51
2023/10/06 11:07:57;;;;;;;0.10;0.10;;;;;;;;;;5153567;27;20055;-51
2023/10/06 11:10:23;;;;;;;0.10;0.10;;;;;;;;;;5168661;27;20102;-51
2023/10/06 11:12:50;;;;;;;0.20;0.20;;;;;;;;;;5167478;27;20074;-51
2023/10/06 11:15:31;;;;;;;0.10;0.10;;;;;;;;;;5168192;27;20047;-51
2023/10/06 11:17:58;;;;;;;0.20;0.20;;;;;;;;;;5167251;27;20446;-50
2023/10/06 11:20:27;;;;;;;0.10;0.10;;;;;;;;;;5167887;27;20054;-51
2023/10/06 11:22:55;;;;;;;0.10;0.10;;;;;;;;;;5168834;27;20046;-51
2023/10/06 11:25:27;;;;;;;;;;;;;;;;;;5169152;27;20081;-51
2023/10/06 11:28:03;;;;;;;0.10;0.10;;;;;;;;;;5167298;27;19923;-51
2023/10/06 11:30:31;;;;;;;0.17;0.17;;;;;;;;;;5168285;27;20469;-51
2023/10/06 11:32:57;;;;;;;0.10;0.10;;;;;;;;;;5168171;27;20052;-51
2023/10/06 11:35:22;;;;;;;0.10;0.10;;;;;;;;;;5168027;27;20050;-52
2023/10/06 11:37:48;;;;;;;0.10;0.10;;;;;;;;;;5167780;27;20514;-50
2023/10/06 11:40:14;;;;;;;0.10;0.10;;;;;;;;;;5168442;27;20053;-52
2023/10/06 11:42:41;;;;;;;0.10;0.10;;;;;;;;;;5136822;27;20419;-52
2023/10/06 11:45:23;;;;;;;0.20;0.20;;;;;;;;;;5147981;27;20070;-52
2023/10/06 11:47:51;;;;;;;0.20;0.20;;;;;;;;;;5147269;27;20131;-51
2023/10/06 11:50:32;;;;;;;0.20;0.20;;;;;;;;;;5146988;27;20103;-50
2023/10/06 11:52:59;;;;;;;0.10;0.10;;;;;;;;;;5147464;27;20050;-50
2023/10/06 11:55:29;;;;;;;0.10;0.10;;;;;;;;;;5147512;27;20049;-51
2023/10/06 11:57:55;;;;;;;0.20;0.20;;;;;;;;;;5147466;27;20078;-51
2023/10/06 12:00:41;;;;;;;0.10;0.10;;;;;;;;;;5147970;27;20134;-51
2023/10/06 12:03:10;;;;;;;0.10;0.10;;;;;;;;;;5132532;27;20050;-51
2023/10/06 12:05:36;;;;;;;0.10;0.10;;;;;;;;;;5147997;27;20055;-51
2023/10/06 12:08:03;;;;;;;0.10;0.10;;;;;;;;;;5147532;27;20516;-51
2023/10/06 12:10:32;;;;;;;0.10;0.10;;;;;;;;;;5148180;27;20051;-51
2023/10/06 12:12:58;;;;;;;0.10;0.10;;;;;;;;;;5146812;27;20043;-51
2023/10/06 12:15:25;;;;;;;0.10;0.10;;;;;;;;;;5141362;27;20392;-51
2023/10/06 12:17:52;;;;;;;0.10;0.10;;;;;;;;;;5129181;27;20048;-50
2023/10/06 12:20:18;;;;;;;0.10;0.10;;;;;;;;;;5115893;28;20063;-50
2023/10/06 12:22:45;;;;;;;0.10;0.10;;;;;;;;;;5132507;27;20047;-51
2023/10/06 12:25:14;;;;;;;0.10;0.10;;;;;;;;;;5133630;27;20487;-51
2023/10/06 12:27:43;;;;;;;0.10;0.10;;;;;;;;;;5131257;27;20058;-52
2023/10/06 12:30:13;;;;;;;0.10;0.10;;;;;;;;;;5113270;28;20059;-52
2023/10/06 12:32:41;;;;;;;0.17;0.17;;;;;;;;;;5113091;28;20100;-51
2023/10/06 12:35:07;;;;;;;0.10;0.10;;;;;;;;;;5112534;28;20054;-52
2023/10/06 12:37:33;;;;;;;0.10;0.10;;;;;;;;;;5112714;28;20047;-52
2023/10/06 12:39:59;;;;;;;0.10;0.10;;;;;;;;;;5112812;28;20105;-52
2023/10/06 12:42:25;;;;;;;0.10;0.10;;;;;;;;;;5112838;28;20043;-52
2023/10/06 12:44:51;;;;;;;0.10;0.10;;;;;;;;;;5112890;28;20043;-50
2023/10/06 12:47:16;;;;;;;0.10;0.10;;;;;;;;;;5112721;28;20043;-51
2023/10/06 12:49:43;;;;;;;0.10;0.10;;;;;;;;;;5112017;28;20083;-52
2023/10/06 12:52:09;;;;;;;0.10;0.10;;;;;;;;;;5142183;27;20048;-52
2023/10/06 12:54:36;;;;;;;0.20;0.20;;;;;;;;;;5152964;27;20065;-51
2023/10/06 12:57:01;;;;;;;0.10;0.10;;;;;;;;;;5153597;27;20043;-52
2023/10/06 12:59:27;;;;;;;0.10;0.10;;;;;;;;;;5119823;27;20490;-52
2023/10/06 13:01:56;;;;;;;0.10;0.10;;;;;;;;;;5112753;28;20463;-51
2023/10/06 13:04:23;;;;;;;0.10;0.10;;;;;;;;;;5112423;28;20048;-51
2023/10/06 13:06:49;;;;;;;0.10;0.10;;;;;;;;;;5112658;28;20052;-50
2023/10/06 13:09:22;;;;;;;0.10;0.10;;;;;;;;;;5111939;28;20051;-51
2023/10/06 13:11:48;;;;;;;0.10;0.10;;;;;;;;;;5111664;28;20424;-51
2023/10/06 13:14:15;;;;;;;0.13;0.13;;;;;;;;;;5122416;28;20078;-51
2023/10/06 13:16:42;;;;;;;0.10;0.10;;;;;;;;;;5130396;28;20455;-51
2023/10/06 13:19:07;;;;;;;0.10;0.10;;;;;;;;;;5117958;27;20047;-51
2023/10/06 13:21:33;;;;;;;0.10;0.10;;;;;;;;;;5112000;28;20057;-51
2023/10/06 13:23:59;;;;;;;0.20;0.20;;;;;;;;;;5129768;28;20039;-50
2023/10/06 13:26:30;;;;;;;0.10;0.10;;;;;;;;;;5131785;27;20051;-50
2023/10/06 13:29:15;;;;;;;0.10;0.10;;;;;;;;;;5106659;28;20055;-50
2023/10/06 13:31:41;;;;;;;0.10;0.10;;;;;;;;;;5112014;28;20052;-51
2023/10/06 13:34:07;;;;;;;0.10;0.10;;;;;;;;;;5111147;28;20047;-51
2023/10/06 13:36:33;;;;;;;0.10;0.10;;;;;;;;;;5111046;28;20442;-51
2023/10/06 13:38:58;;;;;;;0.10;0.10;;;;;;;;;;5111637;28;20495;-51
2023/10/06 13:41:24;;;;;;;0.10;0.10;;;;;;;;;;5111429;28;20071;-51
2023/10/06 13:43:49;;;;;;;0.10;0.10;;;;;;;;;;5111242;28;20055;-49
2023/10/06 13:46:17;;;;;;;0.10;0.10;;;;;;;;;;5111877;28;20047;-51
2023/10/06 13:48:42;;;;;;;0.10;0.10;;;;;;;;;;5110747;28;20052;-51
2023/10/06 13:51:09;;;;;;;0.10;0.10;;;;;;;;;;5135448;27;20372;-51
2023/10/06 13:53:36;;;;;;;0.20;0.20;;;;;;;;;;5152118;27;20078;-50
2023/10/06 13:56:02;;;;;;;0.10;0.10;;;;;;;;;;5151892;27;20478;-50
2023/10/06 13:58:27;;;;;;;0.10;0.10;;;;;;;;;;5135373;27;20058;-50
2023/10/06 14:00:56;;;;;;;0.10;0.10;;;;;;;;;;5111150;28;20547;-50
2023/10/06 14:03:23;;;;;;;0.10;0.10;;;;;;;;;;5111416;28;20432;-51
2023/10/06 14:05:52;;;;;;;0.10;0.10;;;;;;;;;;5111185;28;20056;-51
2023/10/06 14:08:18;;;;;;;0.10;0.10;;;;;;;;;;5110974;28;20047;-51
2023/10/06 14:10:45;;;;;;;0.10;0.10;;;;;;;;;;5111231;28;20130;-51
2023/10/06 14:13:16;;;;;;;0.10;0.10;;;;;;;;;;5110469;28;20054;-50
2023/10/06 14:15:44;;;;;;;0.10;0.10;;;;;;;;;;5118935;28;20138;-50
2023/10/06 14:18:12;;;;;;;0.10;0.10;;;;;;;;;;5131112;28;20073;-51
2023/10/06 14:20:40;;;;;;;0.10;0.10;;;;;;;;;;5131615;28;20047;-51
2023/10/06 14:23:09;;;;;;;;;;;;;;;;;;5131946;28;20079;-51
2023/10/06 14:25:35;;;;;;;0.10;0.10;;;;;;;;;;5130351;28;19923;-50
2023/10/06 14:28:01;;;;;;;0.10;0.10;;;;;;;;;;5126673;27;20403;-51
2023/10/06 14:30:28;;;;;;;0.10;0.10;;;;;;;;;;5110412;28;20063;-50
2023/10/06 14:33:07;;;;;;;0.10;0.10;;;;;;;;;;5110675;28;20054;-49
2023/10/06 14:46:38;;;;;;;0.10;0.10;;;;;;;;;;5139941;27;20467;-51
2023/10/06 14:49:05;;;;;;;0.10;0.10;;;;;;;;;;5167346;27;20046;-49
2023/10/06 14:51:31;;;;;;;0.10;0.10;;;;;;;;;;5149087;27;20042;-51
2023/10/06 14:53:58;;;;;;;0.20;0.20;;;;;;;;;;5190317;27;20081;-50
2023/10/06 14:56:24;;;;;;;0.10;0.10;;;;;;;;;;5189917;27;20058;-51
2023/10/06 14:58:50;;;;;;;0.10;0.10;;;;;;;;;;5166717;27;20099;-51
2023/10/06 15:01:17;;;;;;;0.10;0.10;;;;;;;;;;5148799;27;20050;-51
2023/10/06 15:03:43;;;;;;;0.20;0.20;;;;;;;;;;5148072;27;20082;-51
2023/10/06 15:06:10;;;;;;;0.20;0.20;;;;;;;;;;5148497;27;20043;-49
2023/10/06 15:08:36;;;;;;;0.10;0.10;;;;;;;;;;5148398;27;20411;-51
2023/10/06 15:11:01;;;;;;;0.13;0.13;;;;;;;;;;5147992;27;20051;-50
2023/10/06 15:13:27;;;;;;;0.13;0.13;;;;;;;;;;5146966;27;20042;-51
2023/10/06 15:15:53;;;;;;;0.20;0.20;;;;;;;;;;5146922;27;20097;-51